EGLC/LCY METAR and TAF weather

Enter ICAO airport designator
Station Type Date Time Source
EGLC METAR 2019/10/18 11:20 UTC NOAA

EGLC 181120Z AUTO 24014KT 200V260 9999 BKN031 BKN041 15/08 Q1000


Station Type Date Time Source
EGLC Decoded METAR 2019/10/18 11:20 UTC NOAA

London City Airport, United Kingdom (EGLC) 51-30N 000-30W
Oct 18, 2019 - 07:20 AM EDT / 2019.10.18 1120 UTC
Wind: from the WSW (240 degrees) at 16 MPH (14 KT) (direction variable):0
Visibility: greater than 7 mile(s):0
Sky conditions: mostly cloudy
Temperature: 59 F (15 C)
Dew Point: 46 F (8 C)
Relative Humidity: 62%
Pressure (altimeter): 29.53 in. Hg (1000 hPa)
ob: EGLC 181120Z AUTO 24014KT 200V260 9999 BKN031 BKN041 15/08 Q1000
cycle: 11

Station Type Date Time Source
EGLC TAF 2018/10/15 21:30 UTC NOAA

TAF EGLC 152119Z 1521/1621 CNL

Example: see airport list